Terminal Aerodrome Forecast
Issued by NWS

Home | Current Version | Previous Version | Graphics & Text | Print | Product List | Glossary On
Versions: 1 2 3 4 5 6 7 8 9 10 11 12 13 14 15 16 17 18 19 20 21 22 23 24 25
000
FTUS43 KGRB 221754 AAA
TAFRHI
TAF AMD
KRHI 221754Z 2218/2318 31012G20KT P6SM SCT040 BKN050
     FM222300 30007KT P6SM BKN045 BKN060
     FM230500 31005KT P6SM SCT025
     FM230800 31005KT P6SM BKN025
     FM231600 32007KT P6SM SCT035=

USA.gov is the U.S. government's official web portal to all federal, state and local government web resources and services.